< Typhoon 198420 1984 Season Typhoon 198422 >
Typhoon 198421 (THAD)
General InformationTrack Information on Google MapsDetailed Wind InformationList of All Images || Disaster Info.ResourceGoogle EarthGE AnimationAtom FeedGeoJSON
Detalied Best Track (Time Zone = UTC)
Year Month Day Hour Lat. Long. Pressure (hPa) Wind (kt) Class Image Chart
1984 10 18 06 8.5 150.0 1002 0 2 Image Chart
1984 10 18 12 9.5 149.3 1004 0 2 Image Chart
1984 10 18 18 10.7 148.8 1002 0 2 Image Chart
1984 10 19 00 12.0 148.4 1000 0 2 Image Chart
1984 10 19 06 13.3 148.0 994 35 3 Image Chart
1984 10 19 12 14.4 147.4 990 40 3 Image Chart
1984 10 19 18 15.5 146.7 985 45 3 Image Chart
1984 10 20 00 16.6 146.1 980 55 4 Image Chart
1984 10 20 06 17.7 145.7 975 60 4 Image Chart
1984 10 20 12 18.9 145.2 970 65 5 Image Chart
1984 10 20 18 20.3 144.6 960 70 5 Image Chart
1984 10 21 00 21.7 143.9 950 75 5 Image Chart
1984 10 21 06 22.7 143.7 940 85 5 Image Chart
1984 10 21 12 23.7 143.8 935 90 5 Image Chart
1984 10 21 18 24.8 144.1 935 90 5 Image Chart
1984 10 22 00 26.0 145.1 935 90 5 Image Chart
1984 10 22 06 27.3 146.7 935 90 5 Image Chart
1984 10 22 12 28.5 148.8 950 85 5 Image Chart
1984 10 22 18 29.9 150.8 965 80 5 Image Chart
1984 10 23 00 31.5 153.0 980 60 4 Image Chart
1984 10 23 06 32.8 156.0 980 60 4 Image Chart
1984 10 23 12 34.0 159.3 985 50 4 Image Chart
1984 10 23 18 35.0 162.5 990 45 3 Image Chart
1984 10 24 00 36.0 166.0 992 0 6 Image Chart
1984 10 24 06 37.0 170.0 988 0 6 Image Chart
1984 10 24 12 41.0 175.0 988 0 6 Image Chart
1984 10 24 18 44.0 176.0 990 0 6 Image Chart
1984 10 25 00 45.5 176.5 992 0 6 Image Chart
1984 10 25 06 47.0 177.0 992 0 6 Image Chart
1984 10 25 12 48.0 176.0 992 0 6 Image Chart
1984 10 25 18 50.0 173.0 992 0 6 Image Chart
Japan Meteorological Agency Best Track Data | Correction Date : 1992-10-21
< Typhoon 198420 1984 Season Typhoon 198422 >

Help